createdAt,value
2019-04-29T00:00:34.578Z,7.07
2019-04-29T00:03:38.279Z,4.70
2019-04-29T00:06:42.243Z,8.73
2019-04-29T00:09:46.236Z,6.33
2019-04-29T00:12:50.350Z,6.83
2019-04-29T00:16:25.225Z,5.20
2019-04-29T00:19:56.407Z,6.00
2019-04-29T00:23:00.105Z,6.63
2019-04-29T00:26:03.992Z,7.83
2019-04-29T00:29:07.802Z,8.53
2019-04-29T00:32:11.886Z,8.30
2019-04-29T00:35:15.756Z,6.37
2019-04-29T00:38:38.509Z,8.03
2019-04-29T00:42:06.080Z,11.60
2019-04-29T00:45:10.236Z,10.77
2019-04-29T00:48:14.011Z,8.53
2019-04-29T00:51:17.895Z,8.67
2019-04-29T00:54:44.988Z,9.47
2019-04-29T00:57:48.687Z,11.27
2019-04-29T01:00:52.543Z,8.30
2019-04-29T01:03:56.325Z,12.10
2019-04-29T01:07:00.100Z,9.27
2019-04-29T01:10:04.383Z,11.70
2019-04-29T01:13:08.356Z,9.30
2019-04-29T01:16:12.090Z,9.27
2019-04-29T01:19:15.912Z,9.13
2019-04-29T01:22:19.893Z,12.37
2019-04-29T01:25:23.605Z,12.37
2019-04-29T01:28:37.034Z,8.93
2019-04-29T01:31:40.744Z,8.77
2019-04-29T01:34:53.021Z,11.00
2019-04-29T01:37:56.758Z,13.30
2019-04-29T01:41:07.026Z,9.87
2019-04-29T01:44:11.012Z,15.20
2019-04-29T01:47:14.781Z,11.17
2019-04-29T01:50:18.478Z,13.47
2019-04-29T01:53:24.101Z,11.57
2019-04-29T01:56:27.786Z,16.73
2019-04-29T01:59:31.837Z,10.77
2019-04-29T02:02:35.524Z,13.43
2019-04-29T02:05:39.562Z,12.67
2019-04-29T02:08:43.322Z,10.73
2019-04-29T02:11:47.327Z,10.20
2019-04-29T02:14:51.010Z,11.73
2019-04-29T02:17:54.705Z,13.57
2019-04-29T02:20:58.385Z,11.67
2019-04-29T02:24:15.833Z,12.40
2019-04-29T02:27:19.516Z,15.20
2019-04-29T02:30:42.012Z,12.17
2019-04-29T02:33:45.700Z,11.63
2019-04-29T02:36:49.380Z,12.00
2019-04-29T02:40:02.478Z,11.73
2019-04-29T02:43:11.752Z,9.97
2019-04-29T02:46:15.421Z,11.03
2019-04-29T02:49:19.105Z,14.53
2019-04-29T02:52:22.785Z,10.33
2019-04-29T02:55:31.262Z,10.03
2019-04-29T02:58:49.726Z,12.33
2019-04-29T03:02:27.769Z,13.40
2019-04-29T03:05:40.005Z,8.23
2019-04-29T03:08:43.227Z,12.03
2019-04-29T03:11:47.095Z,10.93
2019-04-29T03:14:51.196Z,15.43
2019-04-29T03:17:55.269Z,16.70
2019-04-29T03:21:04.832Z,14.70
2019-04-29T03:24:08.526Z,10.07
2019-04-29T03:27:12.204Z,13.07
2019-04-29T03:30:16.252Z,16.43
2019-04-29T03:33:19.931Z,15.00
2019-04-29T03:36:23.875Z,17.30
2019-04-29T03:39:27.584Z,13.47
2019-04-29T03:42:31.257Z,15.50
2019-04-29T03:45:34.942Z,11.30
2019-04-29T03:48:38.635Z,14.33
2019-04-29T03:51:42.369Z,17.57
2019-04-29T03:54:46.045Z,15.63
2019-04-29T03:57:49.732Z,22.47
2019-04-29T04:00:58.512Z,20.63
2019-04-29T04:04:10.801Z,23.73
2019-04-29T04:07:32.364Z,18.73
2019-04-29T04:10:36.050Z,19.47
2019-04-29T04:13:39.810Z,22.33
2019-04-29T04:17:14.976Z,23.63
2019-04-29T04:20:18.848Z,20.43
2019-04-29T04:23:22.897Z,20.37
2019-04-29T04:26:26.896Z,21.13
2019-04-29T04:29:30.914Z,23.73
2019-04-29T04:32:34.604Z,19.30
2019-04-29T04:35:38.376Z,19.37
2019-04-29T04:38:42.052Z,23.00
2019-04-29T04:41:45.736Z,17.47
2019-04-29T04:44:49.789Z,16.50
2019-04-29T04:47:53.461Z,18.43
2019-04-29T04:50:57.510Z,20.27
2019-04-29T04:54:01.192Z,17.77
2019-04-29T04:57:05.293Z,19.37
2019-04-29T05:00:14.068Z,18.40
2019-04-29T05:03:18.084Z,16.77
2019-04-29T05:06:22.047Z,20.73
2019-04-29T05:09:25.821Z,20.70
2019-04-29T05:12:29.511Z,18.20
2019-04-29T05:15:33.268Z,19.90
2019-04-29T05:18:36.960Z,23.17
2019-04-29T05:21:40.672Z,20.57
2019-04-29T05:24:44.366Z,21.83
2019-04-29T05:27:48.054Z,21.10
2019-04-29T05:30:51.736Z,23.50
2019-04-29T05:33:55.430Z,28.60
2019-04-29T05:37:05.133Z,22.20
2019-04-29T05:40:09.070Z,24.90
2019-04-29T05:43:14.971Z,22.93
2019-04-29T05:46:24.956Z,23.43
2019-04-29T05:49:41.613Z,24.10
2019-04-29T05:53:03.109Z,22.43
2019-04-29T05:56:06.795Z,25.73
2019-04-29T05:59:12.878Z,20.87
2019-04-29T06:02:15.963Z,24.70
2019-04-29T06:05:19.753Z,25.90
2019-04-29T06:08:23.691Z,24.33
2019-04-29T06:11:27.466Z,21.40
2019-04-29T06:14:31.145Z,19.70
2019-04-29T06:17:34.832Z,23.80
2019-04-29T06:20:38.524Z,21.83
2019-04-29T06:23:42.206Z,22.03
2019-04-29T06:26:45.896Z,25.90
2019-04-29T06:29:49.849Z,23.90
2019-04-29T06:32:53.801Z,27.17
2019-04-29T06:35:57.823Z,23.10
2019-04-29T06:39:01.534Z,22.87
2019-04-29T06:42:05.290Z,30.50
2019-04-29T06:45:09.129Z,19.73
2019-04-29T06:48:12.808Z,21.67
2019-04-29T06:51:16.506Z,21.37
2019-04-29T06:54:20.208Z,21.40
2019-04-29T06:57:24.166Z,20.93
2019-04-29T07:00:27.935Z,21.37
2019-04-29T07:03:31.662Z,22.73
2019-04-29T07:06:35.358Z,24.30
2019-04-29T07:09:39.108Z,22.83
2019-04-29T07:12:47.442Z,21.73
2019-04-29T07:15:48.996Z,21.83
2019-04-29T07:18:53.810Z,22.27
2019-04-29T07:21:57.616Z,21.90
2019-04-29T07:25:01.623Z,21.93
2019-04-29T07:28:05.392Z,22.97
2019-04-29T07:31:10.233Z,23.17
2019-04-29T07:34:14.118Z,21.80
2019-04-29T07:37:18.147Z,22.40
2019-04-29T07:40:21.978Z,25.03
2019-04-29T07:43:25.669Z,25.00
2019-04-29T07:46:55.211Z,23.07
2019-04-29T07:49:40.296Z,24.43
2019-04-29T07:52:45.713Z,23.60
2019-04-29T07:55:49.398Z,23.47
2019-04-29T07:58:53.359Z,20.77
2019-04-29T08:01:59.836Z,30.30
2019-04-29T08:05:02.475Z,26.17
2019-04-29T08:08:07.108Z,29.47
2019-04-29T08:11:11.334Z,25.83
2019-04-29T08:14:15.874Z,28.27
2019-04-29T08:17:19.567Z,26.37
2019-04-29T08:20:23.256Z,30.57
2019-04-29T08:23:26.961Z,27.47
2019-04-29T08:26:33.627Z,26.90
2019-04-29T08:29:37.393Z,28.77
2019-04-29T08:32:41.239Z,28.03
2019-04-29T08:35:46.737Z,22.47
2019-04-29T08:38:50.471Z,21.50
2019-04-29T08:41:54.625Z,23.77
2019-04-29T08:45:07.111Z,21.30
2019-04-29T08:48:11.208Z,24.80
2019-04-29T08:51:15.145Z,23.70
2019-04-29T08:54:20.041Z,21.63
2019-04-29T08:57:23.867Z,19.80
2019-04-29T09:00:27.633Z,18.57
2019-04-29T09:03:40.095Z,18.43
2019-04-29T09:06:36.755Z,19.73
2019-04-29T09:09:40.453Z,17.27
2019-04-29T09:12:44.509Z,23.37
2019-04-29T09:15:48.285Z,19.03
2019-04-29T09:18:52.268Z,20.53
2019-04-29T09:22:00.066Z,16.90
2019-04-29T09:25:26.161Z,18.33
2019-04-29T09:28:29.712Z,17.43
2019-04-29T09:31:33.043Z,17.50
2019-04-29T09:34:36.779Z,15.83
2019-04-29T09:37:40.472Z,15.90
2019-04-29T09:40:54.618Z,19.03
2019-04-29T09:44:29.595Z,16.73
2019-04-29T09:47:33.301Z,16.53
2019-04-29T09:50:39.235Z,16.27
2019-04-29T09:53:42.422Z,21.60
2019-04-29T09:56:46.435Z,22.57
2019-04-29T09:59:55.718Z,17.47
2019-04-29T10:03:05.083Z,19.70
2019-04-29T10:06:14.704Z,17.90
2019-04-29T10:09:18.401Z,20.10
2019-04-29T10:12:22.099Z,19.07
2019-04-29T10:16:03.351Z,23.93
2019-04-29T10:19:25.086Z,24.37
2019-04-29T10:22:28.860Z,20.33
2019-04-29T10:25:32.641Z,28.50
2019-04-29T10:28:39.016Z,17.17
2019-04-29T10:31:42.713Z,24.37
2019-04-29T10:34:46.408Z,27.00
2019-04-29T10:37:50.100Z,21.97
2019-04-29T10:41:02.321Z,24.27
2019-04-29T10:44:25.284Z,20.47
2019-04-29T10:47:40.171Z,25.37
2019-04-29T10:50:47.158Z,21.53
2019-04-29T10:53:50.933Z,23.53
2019-04-29T10:56:55.312Z,21.80
2019-04-29T11:00:10.145Z,26.83
2019-04-29T11:03:13.881Z,21.13
2019-04-29T11:06:17.564Z,27.47
2019-04-29T11:09:42.061Z,23.57
2019-04-29T11:12:45.832Z,27.07
2019-04-29T11:15:51.272Z,23.60
2019-04-29T11:18:59.625Z,21.57
2019-04-29T11:22:02.142Z,21.57
2019-04-29T11:25:32.984Z,24.00
2019-04-29T11:28:36.954Z,25.50
2019-04-29T11:31:41.559Z,25.53
2019-04-29T11:35:00.857Z,27.40
2019-04-29T11:38:52.662Z,22.37
2019-04-29T11:41:59.815Z,27.60
2019-04-29T11:45:04.102Z,27.47
2019-04-29T11:48:07.792Z,19.53
2019-04-29T11:51:24.727Z,19.70
2019-04-29T11:54:28.500Z,20.70
2019-04-29T11:57:57.002Z,21.77
2019-04-29T12:01:14.347Z,19.37
2019-04-29T12:04:36.656Z,21.33
2019-04-29T12:07:40.509Z,22.30
2019-04-29T12:10:48.635Z,19.13
2019-04-29T12:13:59.059Z,21.80
2019-04-29T12:17:18.727Z,17.77
2019-04-29T12:20:28.238Z,16.90
2019-04-29T12:23:32.265Z,17.93
2019-04-29T12:26:43.004Z,18.20
2019-04-29T12:29:41.784Z,16.07
2019-04-29T12:32:56.818Z,16.17
2019-04-29T12:36:05.226Z,16.40
2019-04-29T12:39:43.413Z,20.07
2019-04-29T12:43:05.417Z,15.47
2019-04-29T12:46:23.947Z,13.63
2019-04-29T12:49:27.642Z,15.70
2019-04-29T12:52:31.643Z,15.43
2019-04-29T12:55:45.046Z,19.90
2019-04-29T12:58:50.287Z,16.90
2019-04-29T13:02:07.928Z,13.00
2019-04-29T13:05:18.725Z,15.47
2019-04-29T13:08:26.578Z,17.27
2019-04-29T13:11:45.460Z,17.47
2019-04-29T13:14:39.165Z,19.07
2019-04-29T13:18:03.104Z,13.33
2019-04-29T13:21:09.829Z,14.47
2019-04-29T13:24:13.469Z,13.23
2019-04-29T13:27:16.260Z,13.60
2019-04-29T13:30:16.524Z,14.97
2019-04-29T13:33:20.203Z,11.37
2019-04-29T13:36:26.355Z,18.57
2019-04-29T13:39:39.211Z,16.93
2019-04-29T13:42:34.749Z,17.10
2019-04-29T13:45:47.221Z,16.27
2019-04-29T13:49:13.664Z,15.67
2019-04-29T13:52:18.322Z,14.23
2019-04-29T13:55:46.709Z,15.97
2019-04-29T13:58:29.215Z,16.20
2019-04-29T14:01:58.166Z,14.70
2019-04-29T14:04:49.164Z,15.87
2019-04-29T14:07:54.288Z,16.30
2019-04-29T14:10:58.071Z,12.90
2019-04-29T14:14:01.768Z,17.73
2019-04-29T14:17:24.148Z,16.40
2019-04-29T14:20:15.751Z,16.97
2019-04-29T14:23:17.761Z,14.50
2019-04-29T14:26:21.466Z,15.70
2019-04-29T14:29:28.327Z,14.57
2019-04-29T14:32:35.927Z,11.83
2019-04-29T14:35:43.629Z,15.93
2019-04-29T14:38:47.934Z,13.93
2019-04-29T14:41:56.488Z,15.77
2019-04-29T14:45:34.349Z,13.60
2019-04-29T14:48:47.593Z,15.17
2019-04-29T14:51:51.276Z,9.63
2019-04-29T14:54:54.963Z,12.77
2019-04-29T14:57:58.740Z,19.57
2019-04-29T15:01:33.850Z,13.53
2019-04-29T15:04:39.692Z,16.60
2019-04-29T15:07:43.428Z,18.43
2019-04-29T15:10:48.973Z,17.10
2019-04-29T15:13:57.446Z,82.03
2019-04-29T15:17:15.493Z,18.27
2019-04-29T15:20:29.993Z,11.73
2019-04-29T15:23:33.862Z,22.90
2019-04-29T15:26:37.541Z,18.53
2019-04-29T15:29:41.239Z,18.60
2019-04-29T15:32:45.192Z,14.23
2019-04-29T15:35:48.892Z,17.83
2019-04-29T15:39:08.597Z,12.50
2019-04-29T15:42:01.974Z,15.37
2019-04-29T15:45:03.479Z,17.17
2019-04-29T15:48:07.157Z,13.93
2019-04-29T15:51:13.986Z,14.63
2019-04-29T15:54:16.518Z,11.90
2019-04-29T15:57:20.222Z,13.87
2019-04-29T16:03:54.591Z,13.17
2019-04-29T16:07:35.840Z,11.87
2019-04-29T16:11:01.972Z,9.43
2019-04-29T16:14:21.930Z,9.90
2019-04-29T16:17:39.269Z,13.50
2019-04-29T16:20:53.988Z,29.27
2019-04-29T16:23:57.720Z,23.27
2019-04-29T16:27:08.389Z,16.70
2019-04-29T16:30:07.144Z,10.00
2019-04-29T16:33:14.348Z,8.37
2019-04-29T16:36:17.279Z,8.03
2019-04-29T16:39:21.035Z,8.53
2019-04-29T16:42:33.965Z,9.13
2019-04-29T16:45:52.027Z,6.90
2019-04-29T16:48:56.238Z,6.07
2019-04-29T16:51:59.938Z,7.00
2019-04-29T16:55:05.845Z,7.53
2019-04-29T16:58:17.684Z,9.00
2019-04-29T17:01:15.129Z,7.53
2019-04-29T17:04:18.811Z,7.27
2019-04-29T17:07:22.524Z,5.40
2019-04-29T17:10:42.942Z,5.77
2019-04-29T17:13:46.927Z,6.50
2019-04-29T17:16:50.622Z,6.33
2019-04-29T17:19:54.382Z,5.50
2019-04-29T17:22:58.653Z,7.27
2019-04-29T17:26:02.355Z,8.23
2019-04-29T17:29:38.829Z,5.00
2019-04-29T17:32:44.386Z,5.60
2019-04-29T17:35:47.989Z,7.50
2019-04-29T17:38:53.082Z,7.43
2019-04-29T17:41:56.767Z,5.93
2019-04-29T17:45:10.072Z,6.10
2019-04-29T17:48:18.386Z,6.00
2019-04-29T17:51:20.866Z,4.27
2019-04-29T17:54:30.458Z,8.90
2019-04-29T17:57:45.774Z,4.30
2019-04-29T18:01:05.334Z,5.70
2019-04-29T18:04:37.478Z,5.10
2019-04-29T18:07:51.700Z,7.50
2019-04-29T18:10:55.805Z,7.70
2019-04-29T18:13:59.573Z,7.57
2019-04-29T18:17:05.000Z,9.47
2019-04-29T18:20:33.082Z,9.93
2019-04-29T18:23:38.520Z,5.27
2019-04-29T18:27:07.827Z,10.57
2019-04-29T18:30:18.042Z,5.37
2019-04-29T18:33:18.996Z,6.10
2019-04-29T18:36:25.640Z,9.17
2019-04-29T18:39:31.486Z,7.57
2019-04-29T18:42:38.609Z,6.30
2019-04-29T18:45:40.224Z,39.33
2019-04-29T18:48:45.714Z,16.87
2019-04-29T18:51:49.357Z,19.60
2019-04-29T18:54:54.828Z,9.07
2019-04-29T18:57:58.568Z,4.53
2019-04-29T19:01:02.260Z,6.50
2019-04-29T19:04:16.162Z,7.77
2019-04-29T19:07:17.170Z,6.70
2019-04-29T19:10:32.256Z,6.43
2019-04-29T19:13:26.727Z,13.33
2019-04-29T19:16:30.397Z,8.50
2019-04-29T19:19:37.697Z,9.03
2019-04-29T19:22:44.087Z,9.50
2019-04-29T19:25:48.801Z,9.27
2019-04-29T19:28:51.307Z,5.10
2019-04-29T19:31:55.026Z,7.37
2019-04-29T19:34:58.788Z,6.13
2019-04-29T19:38:02.843Z,8.47
2019-04-29T19:41:06.886Z,5.07
2019-04-29T19:44:10.574Z,4.53
2019-04-29T19:47:15.248Z,6.70
2019-04-29T19:50:19.895Z,9.17
2019-04-29T19:53:25.160Z,10.23
2019-04-29T19:56:29.166Z,8.30
2019-04-29T19:59:35.295Z,7.53
2019-04-29T20:02:45.275Z,8.83
2019-04-29T20:05:48.722Z,9.27
2019-04-29T20:08:57.174Z,6.37
2019-04-29T20:11:58.762Z,6.80
2019-04-29T20:15:03.177Z,7.40
2019-04-29T20:18:34.455Z,5.63
2019-04-29T20:21:33.732Z,10.07
2019-04-29T20:24:39.222Z,11.47
2019-04-29T20:27:43.612Z,7.40
2019-04-29T20:30:50.537Z,7.33
2019-04-29T20:33:57.960Z,9.57
2019-04-29T20:36:59.548Z,9.90
2019-04-29T20:40:05.554Z,8.37
2019-04-29T20:43:09.389Z,8.43
2019-04-29T20:46:13.334Z,6.03
2019-04-29T20:49:17.295Z,6.93
2019-04-29T20:53:01.933Z,7.17
2019-04-29T20:56:11.900Z,8.70
2019-04-29T20:59:12.793Z,8.43
2019-04-29T21:02:29.466Z,9.77
2019-04-29T21:05:24.351Z,8.13
2019-04-29T21:08:26.130Z,7.80
2019-04-29T21:11:45.739Z,11.10
2019-04-29T21:14:52.725Z,9.23
2019-04-29T21:17:58.639Z,8.50
2019-04-29T21:21:04.549Z,7.23
2019-04-29T21:24:13.927Z,11.70
2019-04-29T21:27:16.025Z,9.07
2019-04-29T21:30:19.387Z,7.97
2019-04-29T21:33:23.098Z,12.37
2019-04-29T21:36:39.585Z,9.87
2019-04-29T21:40:14.760Z,11.37
2019-04-29T21:43:18.461Z,10.13
2019-04-29T21:46:25.709Z,8.13
2019-04-29T21:49:28.221Z,8.63
2019-04-29T21:52:32.121Z,7.73
2019-04-29T21:55:36.262Z,9.93
2019-04-29T21:58:40.056Z,10.43
2019-04-29T22:01:44.917Z,9.27
2019-04-29T22:04:48.989Z,6.97
2019-04-29T22:07:52.857Z,7.33
2019-04-29T22:10:59.671Z,7.33
2019-04-29T22:14:02.139Z,9.13
2019-04-29T22:17:06.460Z,6.20
2019-04-29T22:20:12.574Z,7.80
2019-04-29T22:23:17.302Z,6.17
2019-04-29T22:26:23.413Z,6.73
2019-04-29T22:29:27.645Z,9.03
2019-04-29T22:32:31.343Z,9.20
2019-04-29T22:35:37.255Z,8.13
2019-04-29T22:38:43.598Z,8.60
2019-04-29T22:42:00.138Z,9.30
2019-04-29T22:45:05.702Z,9.40
2019-04-29T22:48:16.463Z,10.33
2019-04-29T22:51:18.863Z,8.53
2019-04-29T22:54:22.203Z,6.60
2019-04-29T22:57:28.190Z,6.10
2019-04-29T23:00:32.924Z,10.37
2019-04-29T23:03:38.738Z,7.13
2019-04-29T23:06:46.612Z,8.47
2019-04-29T23:09:48.055Z,7.90
2019-04-29T23:12:54.060Z,12.13
2019-04-29T23:16:00.888Z,9.10
2019-04-29T23:19:05.190Z,9.37
2019-04-29T23:22:36.893Z,7.00
2019-04-29T23:25:55.521Z,6.50
2019-04-29T23:29:03.299Z,11.23
2019-04-29T23:32:08.169Z,10.50
2019-04-29T23:35:12.336Z,9.57
2019-04-29T23:38:16.029Z,9.57
2019-04-29T23:41:20.066Z,9.27
2019-04-29T23:44:23.759Z,9.70
2019-04-29T23:47:27.441Z,6.67
2019-04-29T23:50:31.188Z,5.83
2019-04-29T23:53:35.215Z,8.30
2019-04-29T23:56:58.589Z,6.03
